createdAt,value
2024-01-24T00:00:06.115Z,1504.00
2024-01-24T00:01:06.181Z,1505.00
2024-01-24T00:02:06.140Z,1505.00
2024-01-24T00:03:06.183Z,1506.00
2024-01-24T00:04:06.199Z,1505.00
2024-01-24T00:05:06.185Z,1505.00
2024-01-24T00:06:06.161Z,1506.00
2024-01-24T00:07:06.176Z,1509.00
2024-01-24T00:08:06.169Z,1511.00
2024-01-24T00:09:06.186Z,1514.00
2024-01-24T00:10:06.183Z,1514.00
2024-01-24T00:11:06.182Z,1521.00
2024-01-24T00:12:06.240Z,1518.00
2024-01-24T00:13:06.232Z,1519.00
2024-01-24T00:14:06.258Z,1509.00
2024-01-24T00:15:06.209Z,1513.00
2024-01-24T00:16:06.240Z,1508.00
2024-01-24T00:17:06.241Z,1516.00
2024-01-24T00:18:06.341Z,1512.00
2024-01-24T00:19:06.382Z,1507.00
2024-01-24T00:20:06.310Z,1509.00
2024-01-24T00:21:06.389Z,1505.00
2024-01-24T00:22:06.414Z,1505.00
2024-01-24T00:23:06.445Z,1506.00
2024-01-24T00:24:06.488Z,1504.00
2024-01-24T00:25:06.530Z,1511.00
2024-01-24T00:26:06.577Z,1500.00
2024-01-24T00:27:06.633Z,1506.00
2024-01-24T00:28:06.653Z,1509.00
2024-01-24T00:29:06.702Z,1504.00
2024-01-24T00:30:06.758Z,1506.00
2024-01-24T00:31:06.798Z,1511.00
2024-01-24T00:32:06.846Z,1502.00
2024-01-24T00:33:06.884Z,1506.00
2024-01-24T00:34:07.022Z,1506.00
2024-01-24T00:35:06.910Z,1503.00
2024-01-24T00:36:06.916Z,1507.00
2024-01-24T00:37:06.942Z,1508.00
2024-01-24T00:38:06.949Z,1509.00
2024-01-24T00:39:06.949Z,1503.00
2024-01-24T00:40:06.977Z,1505.00
2024-01-24T00:41:06.960Z,1504.00
2024-01-24T00:42:07.009Z,1503.00
2024-01-24T00:43:06.984Z,1507.00
2024-01-24T00:44:07.002Z,1505.00
2024-01-24T00:45:07.009Z,1501.00
2024-01-24T00:46:07.033Z,1501.00
2024-01-24T00:47:07.052Z,1502.00
2024-01-24T00:48:07.065Z,1502.00
2024-01-24T00:49:07.076Z,1502.00
2024-01-24T00:50:07.065Z,1502.00
2024-01-24T00:51:07.044Z,1503.00
2024-01-24T00:52:07.046Z,1506.00
2024-01-24T00:53:07.043Z,1507.00
2024-01-24T00:54:07.081Z,1512.00
2024-01-24T00:55:07.071Z,1509.00
2024-01-24T00:56:07.066Z,1509.00
2024-01-24T00:57:07.076Z,1504.00
2024-01-24T00:58:07.104Z,1501.00
2024-01-24T00:59:07.122Z,1502.00
2024-01-24T01:00:07.181Z,1499.00
2024-01-24T01:01:07.241Z,1503.00
2024-01-24T01:02:07.144Z,1505.00
2024-01-24T01:03:07.334Z,1495.00
2024-01-24T01:04:07.255Z,1504.00
2024-01-24T01:05:07.223Z,1496.00
2024-01-24T01:06:07.248Z,1499.00
2024-01-24T01:07:07.282Z,1496.00
2024-01-24T01:08:07.339Z,1497.00
2024-01-24T01:09:07.369Z,1501.00
2024-01-24T01:10:07.419Z,1499.00
2024-01-24T01:11:07.471Z,1492.00
2024-01-24T01:12:07.514Z,1494.00
2024-01-24T01:13:07.553Z,1495.00
2024-01-24T01:14:07.597Z,1496.00
2024-01-24T01:15:07.625Z,1489.00
2024-01-24T01:16:07.682Z,1496.00
2024-01-24T01:17:07.729Z,1489.00
2024-01-24T01:18:07.815Z,1498.00
2024-01-24T01:19:07.980Z,1491.00
2024-01-24T01:20:07.877Z,1497.00
2024-01-24T01:21:07.938Z,1489.00
2024-01-24T01:22:07.994Z,1490.00
2024-01-24T01:23:07.985Z,1489.00
2024-01-24T01:24:08.044Z,1492.00
2024-01-24T01:25:08.094Z,1491.00
2024-01-24T01:26:08.118Z,1490.00
2024-01-24T01:27:08.163Z,1493.00
2024-01-24T01:28:08.232Z,1482.00
2024-01-24T01:29:08.274Z,1483.00
2024-01-24T01:30:08.318Z,1478.00
2024-01-24T01:31:08.335Z,1489.00
2024-01-24T01:32:08.399Z,1476.00
2024-01-24T01:33:08.460Z,1481.00
2024-01-24T01:34:08.484Z,1482.00
2024-01-24T01:35:08.442Z,1482.00
2024-01-24T01:36:17.420Z,1484.00
2024-01-24T01:37:09.467Z,1482.00
2024-01-24T01:38:08.449Z,1484.00
2024-01-24T01:39:08.447Z,1484.00
2024-01-24T01:40:08.439Z,1490.00
2024-01-24T01:41:08.476Z,1491.00
2024-01-24T01:42:08.464Z,1487.00
2024-01-24T01:43:08.450Z,1489.00
2024-01-24T01:44:08.460Z,1486.00
2024-01-24T01:45:08.470Z,1491.00
2024-01-24T01:46:08.502Z,1489.00
2024-01-24T01:47:08.501Z,1486.00
2024-01-24T01:48:08.548Z,1486.00
2024-01-24T01:49:08.608Z,1483.00
2024-01-24T01:50:08.534Z,1487.00
2024-01-24T01:51:08.532Z,1486.00
2024-01-24T01:52:08.557Z,1475.00
2024-01-24T01:53:08.574Z,1474.00
2024-01-24T01:54:08.605Z,1480.00
2024-01-24T01:55:08.647Z,1469.00
2024-01-24T01:56:08.679Z,1480.00
2024-01-24T01:57:08.709Z,1473.00
2024-01-24T01:58:08.766Z,1475.00
2024-01-24T01:59:08.790Z,1477.00
2024-01-24T02:00:08.840Z,1475.00
2024-01-24T02:01:09.040Z,1471.00
2024-01-24T02:02:08.921Z,1466.00
2024-01-24T02:03:09.093Z,1477.00
2024-01-24T02:04:09.044Z,1467.00
2024-01-24T02:05:09.043Z,1475.00
2024-01-24T02:06:09.186Z,1470.00
2024-01-24T02:07:09.151Z,1470.00
2024-01-24T02:08:09.114Z,1472.00
2024-01-24T02:09:09.137Z,1472.00
2024-01-24T02:10:09.138Z,1476.00
2024-01-24T02:11:09.215Z,1473.00
2024-01-24T02:12:09.164Z,1470.00
2024-01-24T02:13:09.199Z,1472.00
2024-01-24T02:14:09.188Z,1480.00
2024-01-24T02:15:09.237Z,1481.00
2024-01-24T02:16:09.211Z,1471.00
2024-01-24T02:17:09.226Z,1464.00
2024-01-24T02:18:09.338Z,1465.00
2024-01-24T02:19:09.283Z,1471.00
2024-01-24T02:20:09.233Z,1467.00
2024-01-24T02:21:09.236Z,1472.00
2024-01-24T02:22:09.249Z,1468.00
2024-01-24T02:23:09.240Z,1469.00
2024-01-24T02:24:09.248Z,1469.00
2024-01-24T02:25:09.254Z,1467.00
2024-01-24T02:26:09.258Z,1469.00
2024-01-24T02:27:09.278Z,1471.00
2024-01-24T02:28:09.359Z,1467.00
2024-01-24T02:29:09.271Z,1469.00
2024-01-24T02:30:09.281Z,1470.00
2024-01-24T02:31:09.293Z,1469.00
2024-01-24T02:32:09.309Z,1472.00
2024-01-24T02:33:09.394Z,1468.00
2024-01-24T02:34:09.380Z,1466.00
2024-01-24T02:35:09.296Z,1468.00
2024-01-24T02:36:09.320Z,1471.00
2024-01-24T02:37:09.331Z,1465.00
2024-01-24T02:38:09.329Z,1467.00
2024-01-24T02:39:09.349Z,1461.00
2024-01-24T02:40:09.382Z,1463.00
2024-01-24T02:41:09.385Z,1461.00
2024-01-24T02:42:09.394Z,1461.00
2024-01-24T02:43:09.411Z,1463.00
2024-01-24T02:44:09.420Z,1463.00
2024-01-24T02:45:09.430Z,1464.00
2024-01-24T02:46:09.442Z,1460.00
2024-01-24T02:47:09.453Z,1460.00
2024-01-24T02:48:09.556Z,1459.00
2024-01-24T02:49:09.560Z,1461.00
2024-01-24T02:50:11.409Z,1461.00
2024-01-24T02:51:09.503Z,1462.00
2024-01-24T02:52:09.520Z,1463.00
2024-01-24T02:53:09.532Z,1464.00
2024-01-24T02:54:09.535Z,1467.00
2024-01-24T02:55:09.542Z,1470.00
2024-01-24T02:56:09.567Z,1462.00
2024-01-24T02:57:09.596Z,1460.00
2024-01-24T02:58:09.572Z,1460.00
2024-01-24T02:59:09.582Z,1469.00
2024-01-24T03:00:09.587Z,1463.00
2024-01-24T03:01:09.680Z,1458.00
2024-01-24T03:02:09.616Z,1456.00
2024-01-24T03:03:09.718Z,1456.00
2024-01-24T03:04:09.749Z,1454.00
2024-01-24T03:05:09.644Z,1457.00
2024-01-24T03:06:09.664Z,1463.00
2024-01-24T03:07:09.752Z,1450.00
2024-01-24T03:08:09.679Z,1461.00
2024-01-24T03:09:09.684Z,1463.00
2024-01-24T03:10:09.734Z,1464.00
2024-01-24T03:11:09.684Z,1461.00
2024-01-24T03:12:09.694Z,1464.00
2024-01-24T03:13:09.755Z,1462.00
2024-01-24T03:14:09.707Z,1450.00
2024-01-24T03:15:09.719Z,1456.00
2024-01-24T03:16:09.742Z,1457.00
2024-01-24T03:17:09.728Z,1458.00
2024-01-24T03:18:09.815Z,1461.00
2024-01-24T03:19:09.806Z,1451.00
2024-01-24T03:20:09.744Z,1451.00
2024-01-24T03:21:09.757Z,1450.00
2024-01-24T03:22:09.814Z,1445.00
2024-01-24T03:23:09.847Z,1451.00
2024-01-24T03:24:09.900Z,1448.00
2024-01-24T03:25:09.958Z,1447.00
2024-01-24T03:26:09.988Z,1444.00
2024-01-24T03:27:10.045Z,1441.00
2024-01-24T03:28:10.086Z,1450.00
2024-01-24T03:29:10.127Z,1447.00
2024-01-24T03:30:10.188Z,1434.00
2024-01-24T03:31:10.225Z,1439.00
2024-01-24T03:32:10.268Z,1439.00
2024-01-24T03:33:10.315Z,1440.00
2024-01-24T03:34:10.342Z,1443.00
2024-01-24T03:35:10.304Z,1444.00
2024-01-24T03:36:10.263Z,1439.00
2024-01-24T03:37:10.284Z,1441.00
2024-01-24T03:38:10.286Z,1441.00
2024-01-24T03:39:10.295Z,1444.00
2024-01-24T03:40:10.301Z,1446.00
2024-01-24T03:41:10.338Z,1449.00
2024-01-24T03:42:10.337Z,1447.00
2024-01-24T03:43:10.339Z,1438.00
2024-01-24T03:44:10.387Z,1437.00
2024-01-24T03:45:10.364Z,1442.00
2024-01-24T03:46:10.369Z,1433.00
2024-01-24T03:47:10.378Z,1441.00
2024-01-24T03:48:10.426Z,1440.00
2024-01-24T03:49:10.411Z,1435.00
2024-01-24T03:50:10.449Z,1441.00
2024-01-24T03:51:10.514Z,1435.00
2024-01-24T03:52:10.522Z,1435.00
2024-01-24T03:53:10.526Z,1436.00
2024-01-24T03:54:10.534Z,1429.00
2024-01-24T03:55:10.584Z,1431.00
2024-01-24T03:56:10.591Z,1434.00
2024-01-24T03:57:10.634Z,1432.00
2024-01-24T03:58:10.585Z,1437.00
2024-01-24T03:59:10.600Z,1440.00
2024-01-24T04:00:10.597Z,1436.00
2024-01-24T04:01:10.770Z,1435.00
2024-01-24T04:02:12.032Z,1429.00
2024-01-24T04:03:10.640Z,1430.00
2024-01-24T04:04:10.760Z,1419.00
2024-01-24T04:05:10.656Z,1420.00
2024-01-24T04:06:10.698Z,1420.00
2024-01-24T04:07:10.761Z,1423.00
2024-01-24T04:08:10.673Z,1428.00
2024-01-24T04:09:10.679Z,1420.00
2024-01-24T04:10:10.682Z,1422.00
2024-01-24T04:11:10.694Z,1424.00
2024-01-24T04:12:10.718Z,1426.00
2024-01-24T04:13:10.711Z,1434.00
2024-01-24T04:14:10.747Z,1426.00
2024-01-24T04:15:10.743Z,1427.00
2024-01-24T04:16:10.815Z,1423.00
2024-01-24T04:17:10.762Z,1423.00
2024-01-24T04:18:10.846Z,1420.00
2024-01-24T04:19:10.824Z,1425.00
2024-01-24T04:20:10.776Z,1425.00
2024-01-24T04:21:10.800Z,1425.00
2024-01-24T04:22:10.817Z,1425.00
2024-01-24T04:23:10.811Z,1427.00
2024-01-24T04:24:10.805Z,1431.00
2024-01-24T04:25:10.821Z,1421.00
2024-01-24T04:26:10.829Z,1417.00
2024-01-24T04:27:10.836Z,1420.00
2024-01-24T04:28:10.837Z,1422.00
2024-01-24T04:29:13.611Z,1418.00
2024-01-24T04:30:10.854Z,1428.00
2024-01-24T04:31:10.867Z,1424.00
2024-01-24T04:32:10.890Z,1418.00
2024-01-24T04:33:11.005Z,1420.00
2024-01-24T04:34:11.029Z,1415.00
2024-01-24T04:35:10.892Z,1418.00
2024-01-24T04:36:10.898Z,1418.00
2024-01-24T04:37:10.941Z,1419.00
2024-01-24T04:38:10.908Z,1420.00
2024-01-24T04:39:10.930Z,1419.00
2024-01-24T04:40:10.947Z,1419.00
2024-01-24T04:41:10.941Z,1414.00
2024-01-24T04:42:16.188Z,1414.00
2024-01-24T04:43:11.978Z,1414.00
2024-01-24T04:44:10.972Z,1414.00
2024-01-24T04:45:18.306Z,600.00
2024-01-24T04:46:18.256Z,600.00
2024-01-24T04:47:18.317Z,600.00
2024-01-24T04:48:18.422Z,600.00
2024-01-24T04:49:26.585Z,600.00
2024-01-24T04:50:18.606Z,600.00
2024-01-24T04:51:18.373Z,600.00
2024-01-24T04:52:18.321Z,600.00
2024-01-24T04:53:18.412Z,600.00
2024-01-24T04:54:18.475Z,600.00
2024-01-24T04:55:18.347Z,600.00
2024-01-24T04:56:18.363Z,600.00
2024-01-24T04:57:18.375Z,603.00
2024-01-24T04:58:18.392Z,600.00
2024-01-24T04:59:18.459Z,601.00
2024-01-24T05:00:18.428Z,603.00
2024-01-24T05:01:18.516Z,604.00
2024-01-24T05:02:18.408Z,603.00
2024-01-24T05:03:18.442Z,603.00
2024-01-24T05:04:18.466Z,603.00
2024-01-24T05:05:18.526Z,601.00
2024-01-24T05:06:18.546Z,602.00
2024-01-24T05:07:19.006Z,601.00
2024-01-24T05:08:18.533Z,601.00
2024-01-24T05:09:18.611Z,601.00
2024-01-24T05:10:18.649Z,607.00
2024-01-24T05:11:18.693Z,605.00
2024-01-24T05:12:18.801Z,604.00
2024-01-24T05:13:18.795Z,604.00
2024-01-24T05:14:18.838Z,604.00
2024-01-24T05:15:18.972Z,603.00
2024-01-24T05:16:18.946Z,602.00
2024-01-24T05:17:19.003Z,603.00
2024-01-24T05:18:19.145Z,606.00
2024-01-24T05:19:19.194Z,606.00
2024-01-24T05:20:19.124Z,606.00
2024-01-24T05:21:19.196Z,603.00
2024-01-24T05:22:19.149Z,606.00
2024-01-24T05:23:19.146Z,603.00
2024-01-24T05:24:19.220Z,606.00
2024-01-24T05:25:19.155Z,606.00
2024-01-24T05:26:19.177Z,606.00
2024-01-24T05:27:19.217Z,604.00
2024-01-24T05:28:19.197Z,604.00
2024-01-24T05:29:19.227Z,602.00
2024-01-24T05:30:29.954Z,597.00
2024-01-24T05:31:20.289Z,597.00
2024-01-24T05:32:19.269Z,593.00
2024-01-24T05:33:19.379Z,587.00
2024-01-24T05:34:19.360Z,577.00
2024-01-24T05:35:19.313Z,570.00
2024-01-24T05:36:19.343Z,564.00
2024-01-24T05:37:19.354Z,589.00
2024-01-24T05:38:19.344Z,601.00
2024-01-24T05:39:19.394Z,600.00
2024-01-24T05:40:19.370Z,602.00
2024-01-24T05:41:19.403Z,597.00
2024-01-24T05:42:19.448Z,594.00
2024-01-24T05:43:19.439Z,589.00
2024-01-24T05:44:19.462Z,582.00
2024-01-24T05:45:19.505Z,577.00
2024-01-24T05:46:19.503Z,601.00
2024-01-24T05:47:19.535Z,605.00
2024-01-24T05:48:19.682Z,595.00
2024-01-24T05:49:19.819Z,587.00
2024-01-24T05:50:19.564Z,577.00
2024-01-24T05:51:19.660Z,572.00
2024-01-24T05:52:19.627Z,566.00
2024-01-24T05:53:19.625Z,588.00
2024-01-24T05:54:19.670Z,588.00
2024-01-24T05:55:19.655Z,589.00
2024-01-24T05:56:19.662Z,586.00
2024-01-24T05:57:19.728Z,586.00
2024-01-24T05:58:19.702Z,590.00
2024-01-24T05:59:19.731Z,588.00
2024-01-24T06:00:19.821Z,588.00
2024-01-24T06:01:19.831Z,583.00
2024-01-24T06:02:19.782Z,583.00
2024-01-24T06:03:19.834Z,582.00
2024-01-24T06:04:19.917Z,600.00
2024-01-24T06:05:19.941Z,600.00
2024-01-24T06:06:20.023Z,600.00
2024-01-24T06:07:19.979Z,599.00
2024-01-24T06:08:19.924Z,598.00
2024-01-24T06:09:20.101Z,602.00
2024-01-24T06:10:19.975Z,601.00
2024-01-24T06:11:20.017Z,600.00
2024-01-24T06:12:20.052Z,602.00
2024-01-24T06:13:20.065Z,600.00
2024-01-24T06:14:20.071Z,600.00
2024-01-24T06:15:20.121Z,600.00
2024-01-24T06:16:20.132Z,600.00
2024-01-24T06:17:20.148Z,600.00
2024-01-24T06:18:20.305Z,602.00
2024-01-24T06:19:20.208Z,605.00
2024-01-24T06:20:20.201Z,609.00
2024-01-24T06:21:20.236Z,611.00
2024-01-24T06:22:20.248Z,613.00
2024-01-24T06:23:20.278Z,616.00
2024-01-24T06:24:20.864Z,616.00
2024-01-24T06:25:20.335Z,622.00
2024-01-24T06:26:20.352Z,620.00
2024-01-24T06:27:20.434Z,623.00
2024-01-24T06:28:20.382Z,627.00
2024-01-24T06:30:14.824Z,625.00
2024-01-24T06:30:23.569Z,624.00
2024-01-24T06:31:20.524Z,625.00
2024-01-24T06:32:20.475Z,626.00
2024-01-24T06:33:20.545Z,627.00
2024-01-24T06:34:20.549Z,628.00
2024-01-24T06:35:20.518Z,632.00
2024-01-24T06:36:20.591Z,634.00
2024-01-24T06:37:20.556Z,632.00
2024-01-24T06:38:20.571Z,632.00
2024-01-24T06:39:20.622Z,631.00
2024-01-24T06:40:20.614Z,628.00
2024-01-24T06:41:20.643Z,629.00
2024-01-24T06:42:20.654Z,623.00
2024-01-24T06:43:20.656Z,621.00
2024-01-24T06:44:20.664Z,619.00
2024-01-24T06:45:20.926Z,611.00
2024-01-24T06:46:20.701Z,603.00
2024-01-24T06:47:20.722Z,601.00
2024-01-24T06:48:20.805Z,601.00
2024-01-24T06:49:20.825Z,606.00
2024-01-24T06:50:20.789Z,607.00
2024-01-24T06:51:20.845Z,608.00
2024-01-24T06:52:20.843Z,611.00
2024-01-24T06:53:20.782Z,617.00
2024-01-24T06:54:20.845Z,629.00
2024-01-24T06:55:20.793Z,608.00
2024-01-24T06:56:20.854Z,613.00
2024-01-24T06:57:20.833Z,622.00
2024-01-24T06:58:20.825Z,636.00
2024-01-24T06:59:20.855Z,662.00
2024-01-24T07:00:20.886Z,683.00
2024-01-24T07:01:20.940Z,695.00
2024-01-24T07:02:20.864Z,717.00
2024-01-24T07:03:23.457Z,734.00
2024-01-24T07:04:20.939Z,735.00
2024-01-24T07:05:20.899Z,742.00
2024-01-24T07:06:21.081Z,756.00
2024-01-24T07:07:20.923Z,780.00
2024-01-24T07:08:20.908Z,813.00
2024-01-24T07:09:20.931Z,831.00
2024-01-24T07:10:20.902Z,840.00
2024-01-24T07:11:20.915Z,851.00
2024-01-24T07:12:20.915Z,855.00
2024-01-24T07:13:20.912Z,860.00
2024-01-24T07:14:20.977Z,867.00
2024-01-24T07:15:20.930Z,874.00
2024-01-24T07:16:20.921Z,867.00
2024-01-24T07:17:20.958Z,879.00
2024-01-24T07:18:21.049Z,879.00
2024-01-24T07:19:21.114Z,876.00
2024-01-24T07:20:20.968Z,882.00
2024-01-24T07:21:20.974Z,882.00
2024-01-24T07:22:20.985Z,873.00
2024-01-24T07:23:21.005Z,875.00
2024-01-24T07:24:21.041Z,874.00
2024-01-24T07:25:21.193Z,864.00
2024-01-24T07:26:21.080Z,863.00
2024-01-24T07:27:21.190Z,853.00
2024-01-24T07:28:21.179Z,839.00
2024-01-24T07:29:21.161Z,829.00
2024-01-24T07:30:21.310Z,815.00
2024-01-24T07:31:21.222Z,804.00
2024-01-24T07:32:21.247Z,797.00
2024-01-24T07:33:24.983Z,786.00
2024-01-24T07:34:21.368Z,786.00
2024-01-24T07:35:21.317Z,776.00
2024-01-24T07:36:21.309Z,773.00
2024-01-24T07:37:21.298Z,767.00
2024-01-24T07:38:21.282Z,765.00
2024-01-24T07:39:21.396Z,763.00
2024-01-24T07:40:21.297Z,759.00
2024-01-24T07:41:21.300Z,751.00
2024-01-24T07:42:21.324Z,742.00
2024-01-24T07:43:21.322Z,732.00
2024-01-24T07:44:21.363Z,722.00
2024-01-24T07:45:21.333Z,700.00
2024-01-24T07:46:21.340Z,684.00
2024-01-24T07:47:21.327Z,674.00
2024-01-24T07:48:21.472Z,665.00
2024-01-24T07:49:21.486Z,664.00
2024-01-24T07:50:21.458Z,659.00
2024-01-24T07:51:21.383Z,747.00
2024-01-24T07:52:28.986Z,762.00
2024-01-24T07:53:22.374Z,753.00
2024-01-24T07:54:21.422Z,719.00
2024-01-24T07:55:28.311Z,699.00
2024-01-24T07:57:21.492Z,664.00
2024-01-24T07:58:21.588Z,656.00
2024-01-24T07:59:21.436Z,650.00
2024-01-24T08:00:21.505Z,645.00
2024-01-24T08:01:22.262Z,644.00
2024-01-24T08:02:21.484Z,641.00
2024-01-24T08:03:21.569Z,635.00
2024-01-24T08:04:21.695Z,635.00
2024-01-24T08:05:21.572Z,631.00
2024-01-24T08:06:21.729Z,630.00
2024-01-24T08:07:21.629Z,630.00
2024-01-24T08:08:21.622Z,632.00
2024-01-24T08:09:21.662Z,630.00
2024-01-24T08:10:21.765Z,628.00
2024-01-24T08:11:21.652Z,628.00
2024-01-24T08:12:21.728Z,628.00
2024-01-24T08:13:21.690Z,627.00
2024-01-24T08:14:21.706Z,633.00
2024-01-24T08:15:21.760Z,630.00
2024-01-24T08:16:21.743Z,628.00
2024-01-24T08:17:21.783Z,622.00
2024-01-24T08:18:21.808Z,623.00
2024-01-24T08:19:21.765Z,622.00
2024-01-24T08:20:21.831Z,617.00
2024-01-24T08:21:21.841Z,619.00
2024-01-24T08:22:21.803Z,617.00
2024-01-24T08:23:24.644Z,615.00
2024-01-24T08:24:21.860Z,615.00
2024-01-24T08:25:21.812Z,608.00
2024-01-24T08:26:21.801Z,608.00
2024-01-24T08:27:21.833Z,608.00
2024-01-24T08:28:21.932Z,612.00
2024-01-24T08:29:26.149Z,611.00
2024-01-24T08:30:22.813Z,611.00
2024-01-24T08:31:21.773Z,612.00
2024-01-24T08:32:21.821Z,612.00
2024-01-24T08:33:21.867Z,614.00
2024-01-24T08:34:21.846Z,616.00
2024-01-24T08:35:21.775Z,613.00
2024-01-24T08:36:21.783Z,617.00
2024-01-24T08:37:21.765Z,614.00
2024-01-24T08:38:21.745Z,611.00
2024-01-24T08:39:21.768Z,609.00
2024-01-24T08:40:21.736Z,604.00
2024-01-24T08:41:21.758Z,602.00
2024-01-24T08:42:21.770Z,600.00
2024-01-24T08:43:21.735Z,605.00
2024-01-24T08:44:21.732Z,606.00
2024-01-24T08:45:21.736Z,606.00
2024-01-24T08:46:21.743Z,609.00
2024-01-24T08:47:21.714Z,610.00
2024-01-24T08:48:21.874Z,617.00
2024-01-24T08:49:21.795Z,619.00
2024-01-24T08:50:21.740Z,617.00
2024-01-24T08:51:21.769Z,615.00
2024-01-24T08:52:21.740Z,612.00
2024-01-24T08:53:21.718Z,610.00
2024-01-24T08:54:21.763Z,608.00
2024-01-24T08:55:21.716Z,610.00
2024-01-24T08:56:21.726Z,607.00
2024-01-24T08:57:21.794Z,611.00
2024-01-24T08:58:21.721Z,611.00
2024-01-24T08:59:21.726Z,610.00
2024-01-24T09:00:21.753Z,610.00
2024-01-24T09:01:21.851Z,609.00
2024-01-24T09:02:21.711Z,609.00
2024-01-24T09:03:21.793Z,608.00
2024-01-24T09:04:21.773Z,604.00
2024-01-24T09:05:21.738Z,600.00
2024-01-24T09:06:21.749Z,600.00
2024-01-24T09:07:21.712Z,600.00
2024-01-24T09:08:21.717Z,602.00
2024-01-24T09:09:21.768Z,601.00
2024-01-24T09:10:21.788Z,600.00
2024-01-24T09:11:21.728Z,600.00
2024-01-24T09:12:21.790Z,601.00
2024-01-24T09:13:21.740Z,601.00
2024-01-24T09:14:21.750Z,600.00
2024-01-24T09:15:21.795Z,602.00
2024-01-24T09:16:21.751Z,603.00
2024-01-24T09:17:21.765Z,604.00
2024-01-24T09:18:22.007Z,608.00
2024-01-24T09:19:21.823Z,610.00
2024-01-24T09:20:21.841Z,612.00
2024-01-24T09:21:21.808Z,614.00
2024-01-24T09:22:21.757Z,617.00
2024-01-24T09:23:21.769Z,618.00
2024-01-24T09:24:21.788Z,616.00
2024-01-24T09:25:21.801Z,612.00
2024-01-24T09:26:21.776Z,613.00
2024-01-24T09:27:21.797Z,613.00
2024-01-24T09:28:21.785Z,613.00
2024-01-24T09:29:21.768Z,614.00
2024-01-24T09:30:21.816Z,615.00
2024-01-24T09:31:21.795Z,618.00
2024-01-24T09:32:21.794Z,623.00
2024-01-24T09:33:21.877Z,622.00
2024-01-24T09:34:21.862Z,622.00
2024-01-24T09:35:21.901Z,623.00
2024-01-24T09:36:22.432Z,621.00
2024-01-24T09:37:21.785Z,620.00
2024-01-24T09:38:21.768Z,620.00
2024-01-24T09:39:21.832Z,618.00
2024-01-24T09:40:21.913Z,617.00
2024-01-24T09:41:21.826Z,617.00
2024-01-24T09:42:21.886Z,616.00
2024-01-24T09:43:21.845Z,616.00
2024-01-24T09:44:21.831Z,617.00
2024-01-24T09:45:21.885Z,613.00
2024-01-24T09:46:21.915Z,610.00
2024-01-24T09:47:21.877Z,610.00
2024-01-24T09:48:21.976Z,603.00
2024-01-24T09:49:21.961Z,600.00
2024-01-24T09:50:21.948Z,600.00
2024-01-24T09:51:21.940Z,600.00
2024-01-24T09:52:21.953Z,601.00
2024-01-24T09:53:22.035Z,600.00
2024-01-24T09:54:22.117Z,600.00
2024-01-24T09:55:22.072Z,601.00
2024-01-24T09:56:22.109Z,602.00
2024-01-24T09:57:22.109Z,604.00
2024-01-24T09:58:22.111Z,607.00
2024-01-24T09:59:22.069Z,610.00
2024-01-24T10:00:22.133Z,617.00
2024-01-24T10:01:22.157Z,614.00
2024-01-24T10:02:22.081Z,619.00
2024-01-24T10:03:22.162Z,623.00
2024-01-24T10:04:22.210Z,621.00
2024-01-24T10:05:22.084Z,625.00
2024-01-24T10:06:22.149Z,635.00
2024-01-24T10:07:22.132Z,637.00
2024-01-24T10:08:22.089Z,640.00
2024-01-24T10:09:22.126Z,644.00
2024-01-24T10:10:22.140Z,647.00
2024-01-24T10:11:22.085Z,651.00
2024-01-24T10:12:22.180Z,654.00
2024-01-24T10:13:22.927Z,660.00
2024-01-24T10:14:22.115Z,664.00
2024-01-24T10:15:22.181Z,673.00
2024-01-24T10:16:22.143Z,683.00
2024-01-24T10:17:22.177Z,688.00
2024-01-24T10:18:22.242Z,694.00
2024-01-24T10:19:22.244Z,705.00
2024-01-24T10:20:22.181Z,712.00
2024-01-24T10:21:22.288Z,721.00
2024-01-24T10:22:22.365Z,722.00
2024-01-24T10:23:22.192Z,724.00
2024-01-24T10:24:22.228Z,727.00
2024-01-24T10:25:22.204Z,727.00
2024-01-24T10:26:22.219Z,729.00
2024-01-24T10:27:22.261Z,735.00
2024-01-24T10:28:22.243Z,728.00
2024-01-24T10:29:22.203Z,733.00
2024-01-24T10:30:22.251Z,740.00
2024-01-24T10:31:22.341Z,753.00
2024-01-24T10:32:22.198Z,773.00
2024-01-24T10:33:22.312Z,779.00
2024-01-24T10:34:22.324Z,774.00
2024-01-24T10:35:22.234Z,777.00
2024-01-24T10:36:27.555Z,781.00
2024-01-24T10:37:23.620Z,781.00
2024-01-24T10:38:22.182Z,772.00
2024-01-24T10:39:22.179Z,769.00
2024-01-24T10:40:22.159Z,769.00
2024-01-24T10:41:22.144Z,774.00
2024-01-24T10:42:22.205Z,768.00
2024-01-24T10:43:22.140Z,758.00
2024-01-24T10:44:22.175Z,754.00
2024-01-24T10:45:22.261Z,748.00
2024-01-24T10:46:22.170Z,740.00
2024-01-24T10:47:22.197Z,729.00
2024-01-24T10:48:22.287Z,687.00
2024-01-24T10:49:22.170Z,678.00
2024-01-24T10:50:22.121Z,662.00
2024-01-24T10:51:22.136Z,662.00
2024-01-24T10:52:22.159Z,660.00
2024-01-24T10:53:22.135Z,651.00
2024-01-24T10:54:22.142Z,646.00
2024-01-24T10:55:22.099Z,641.00
2024-01-24T10:56:22.101Z,636.00
2024-01-24T10:57:22.116Z,630.00
2024-01-24T10:58:22.123Z,622.00
2024-01-24T10:59:22.120Z,617.00
2024-01-24T11:00:22.156Z,606.00
2024-01-24T11:01:22.191Z,604.00
2024-01-24T11:02:22.162Z,602.00
2024-01-24T11:03:22.225Z,602.00
2024-01-24T11:04:22.133Z,605.00
2024-01-24T11:05:22.281Z,606.00
2024-01-24T11:06:22.159Z,610.00
2024-01-24T11:07:22.153Z,607.00
2024-01-24T11:08:23.690Z,605.00
2024-01-24T11:09:22.193Z,605.00
2024-01-24T11:10:22.227Z,604.00
2024-01-24T11:11:22.179Z,611.00
2024-01-24T11:12:22.216Z,607.00
2024-01-24T11:13:22.210Z,601.00
2024-01-24T11:14:22.178Z,601.00
2024-01-24T11:15:22.274Z,602.00
2024-01-24T11:16:22.185Z,604.00
2024-01-24T11:17:22.242Z,608.00
2024-01-24T11:18:22.272Z,622.00
2024-01-24T11:19:22.472Z,624.00
2024-01-24T11:20:22.236Z,629.00
2024-01-24T11:21:22.247Z,636.00
2024-01-24T11:22:27.125Z,638.00
2024-01-24T11:23:23.220Z,638.00
2024-01-24T11:24:22.219Z,641.00
2024-01-24T11:25:22.238Z,647.00
2024-01-24T11:26:22.334Z,660.00
2024-01-24T11:27:23.086Z,691.00
2024-01-24T11:28:22.230Z,710.00
2024-01-24T11:29:22.229Z,720.00
2024-01-24T11:30:22.322Z,734.00
2024-01-24T11:31:22.212Z,746.00
2024-01-24T11:32:22.221Z,759.00
2024-01-24T11:33:22.269Z,757.00
2024-01-24T11:34:22.313Z,763.00
2024-01-24T11:35:22.290Z,767.00
2024-01-24T11:36:22.222Z,767.00
2024-01-24T11:37:22.218Z,765.00
2024-01-24T11:38:26.670Z,768.00
2024-01-24T11:39:23.238Z,768.00
2024-01-24T11:40:22.212Z,770.00
2024-01-24T11:41:22.171Z,776.00
2024-01-24T11:42:22.171Z,769.00
2024-01-24T11:43:22.162Z,774.00
2024-01-24T11:44:22.175Z,782.00
2024-01-24T11:45:22.297Z,797.00
2024-01-24T11:46:22.254Z,818.00
2024-01-24T11:47:22.167Z,826.00
2024-01-24T11:48:22.340Z,822.00
2024-01-24T11:49:22.179Z,822.00
2024-01-24T11:50:22.650Z,823.00
2024-01-24T11:51:22.258Z,826.00
2024-01-24T11:52:22.116Z,821.00
2024-01-24T11:53:22.143Z,822.00
2024-01-24T11:54:22.154Z,823.00
2024-01-24T11:55:22.173Z,820.00
2024-01-24T11:56:23.640Z,816.00
2024-01-24T11:57:22.098Z,817.00
2024-01-24T11:58:22.066Z,812.00
2024-01-24T11:59:22.055Z,810.00
2024-01-24T12:00:22.147Z,806.00
2024-01-24T12:01:22.150Z,805.00
2024-01-24T12:02:22.072Z,801.00
2024-01-24T12:03:22.101Z,803.00
2024-01-24T12:04:22.221Z,795.00
2024-01-24T12:05:22.074Z,789.00
2024-01-24T12:06:22.179Z,785.00
2024-01-24T12:07:22.166Z,779.00
2024-01-24T12:08:22.050Z,773.00
2024-01-24T12:09:22.078Z,765.00
2024-01-24T12:10:22.047Z,759.00
2024-01-24T12:11:22.041Z,752.00
2024-01-24T12:12:22.050Z,743.00
2024-01-24T12:13:22.037Z,739.00
2024-01-24T12:14:22.018Z,734.00
2024-01-24T12:15:22.095Z,728.00
2024-01-24T12:16:22.042Z,720.00
2024-01-24T12:17:22.000Z,718.00
2024-01-24T12:18:22.388Z,713.00
2024-01-24T12:19:22.114Z,707.00
2024-01-24T12:20:22.137Z,703.00